sensor_id;sensor_type;location;lat;lon;timestamp;P1;durP1;ratioP1;P2;durP2;ratioP2
1479;SDS011;732;51.698;4.886;2022-09-23T00:01:47;11.60;;;8.37;;
1479;SDS011;732;51.698;4.886;2022-09-23T00:04:16;12.87;;;8.67;;
1479;SDS011;732;51.698;4.886;2022-09-23T00:06:45;13.27;;;8.90;;
1479;SDS011;732;51.698;4.886;2022-09-23T00:09:13;13.17;;;8.67;;
1479;SDS011;732;51.698;4.886;2022-09-23T00:11:42;11.83;;;8.53;;
1479;SDS011;732;51.698;4.886;2022-09-23T00:14:10;13.40;;;8.97;;
1479;SDS011;732;51.698;4.886;2022-09-23T00:16:39;15.93;;;9.73;;
1479;SDS011;732;51.698;4.886;2022-09-23T00:19:09;12.50;;;8.97;;
1479;SDS011;732;51.698;4.886;2022-09-23T00:21:37;12.13;;;8.33;;
1479;SDS011;732;51.698;4.886;2022-09-23T00:24:06;14.50;;;9.13;;
1479;SDS011;732;51.698;4.886;2022-09-23T00:26:34;17.13;;;9.23;;
1479;SDS011;732;51.698;4.886;2022-09-23T00:29:03;12.80;;;9.30;;
1479;SDS011;732;51.698;4.886;2022-09-23T00:31:31;15.87;;;9.57;;
1479;SDS011;732;51.698;4.886;2022-09-23T00:34:00;12.63;;;9.13;;
1479;SDS011;732;51.698;4.886;2022-09-23T00:36:30;16.67;;;9.70;;
1479;SDS011;732;51.698;4.886;2022-09-23T00:38:59;13.90;;;8.40;;
1479;SDS011;732;51.698;4.886;2022-09-23T00:41:30;15.07;;;9.30;;
1479;SDS011;732;51.698;4.886;2022-09-23T00:44:00;13.87;;;9.60;;
1479;SDS011;732;51.698;4.886;2022-09-23T00:47:10;11.20;;;8.60;;
1479;SDS011;732;51.698;4.886;2022-09-23T00:49:51;12.70;;;8.80;;
1479;SDS011;732;51.698;4.886;2022-09-23T00:52:28;11.60;;;8.80;;
1479;SDS011;732;51.698;4.886;2022-09-23T00:54:59;13.47;;;8.80;;
1479;SDS011;732;51.698;4.886;2022-09-23T00:57:31;13.83;;;8.23;;
1479;SDS011;732;51.698;4.886;2022-09-23T01:00:03;11.27;;;7.97;;
1479;SDS011;732;51.698;4.886;2022-09-23T01:02:34;12.30;;;8.70;;
1479;SDS011;732;51.698;4.886;2022-09-23T01:05:03;12.70;;;9.10;;
1479;SDS011;732;51.698;4.886;2022-09-23T01:07:35;13.70;;;8.40;;
1479;SDS011;732;51.698;4.886;2022-09-23T01:10:04;11.50;;;9.20;;
1479;SDS011;732;51.698;4.886;2022-09-23T01:12:38;12.47;;;8.17;;
1479;SDS011;732;51.698;4.886;2022-09-23T01:15:34;14.10;;;8.87;;
1479;SDS011;732;51.698;4.886;2022-09-23T01:18:13;14.77;;;8.97;;
1479;SDS011;732;51.698;4.886;2022-09-23T01:20:56;11.27;;;8.63;;
1479;SDS011;732;51.698;4.886;2022-09-23T01:23:41;9.80;;;8.27;;
1479;SDS011;732;51.698;4.886;2022-09-23T01:30:11;15.23;;;8.90;;
1479;SDS011;732;51.698;4.886;2022-09-23T01:32:58;14.33;;;9.50;;
1479;SDS011;732;51.698;4.886;2022-09-23T01:35:38;13.50;;;9.30;;
1479;SDS011;732;51.698;4.886;2022-09-23T01:38:19;17.63;;;9.83;;
1479;SDS011;732;51.698;4.886;2022-09-23T01:41:00;15.93;;;8.43;;
1479;SDS011;732;51.698;4.886;2022-09-23T01:43:38;14.43;;;9.40;;
1479;SDS011;732;51.698;4.886;2022-09-23T01:46:14;14.23;;;9.10;;
1479;SDS011;732;51.698;4.886;2022-09-23T01:48:50;15.60;;;9.13;;
1479;SDS011;732;51.698;4.886;2022-09-23T01:51:27;13.23;;;8.50;;
1479;SDS011;732;51.698;4.886;2022-09-23T01:54:02;16.73;;;10.03;;
1479;SDS011;732;51.698;4.886;2022-09-23T01:56:37;15.00;;;9.70;;
1479;SDS011;732;51.698;4.886;2022-09-23T01:59:13;13.70;;;8.90;;
1479;SDS011;732;51.698;4.886;2022-09-23T02:01:47;13.47;;;8.87;;
1479;SDS011;732;51.698;4.886;2022-09-23T02:04:24;11.00;;;8.10;;
1479;SDS011;732;51.698;4.886;2022-09-23T02:06:58;14.53;;;9.90;;
1479;SDS011;732;51.698;4.886;2022-09-23T02:09:32;13.13;;;9.17;;
1479;SDS011;732;51.698;4.886;2022-09-23T02:12:09;15.23;;;9.17;;
1479;SDS011;732;51.698;4.886;2022-09-23T02:14:46;15.03;;;8.93;;
1479;SDS011;732;51.698;4.886;2022-09-23T02:17:22;13.07;;;9.13;;
1479;SDS011;732;51.698;4.886;2022-09-23T02:20:00;12.40;;;8.90;;
1479;SDS011;732;51.698;4.886;2022-09-23T02:22:34;13.70;;;9.77;;
1479;SDS011;732;51.698;4.886;2022-09-23T02:25:08;14.30;;;8.80;;
1479;SDS011;732;51.698;4.886;2022-09-23T02:27:39;14.93;;;9.50;;
1479;SDS011;732;51.698;4.886;2022-09-23T02:30:14;13.60;;;9.07;;
1479;SDS011;732;51.698;4.886;2022-09-23T02:32:48;14.63;;;9.43;;
1479;SDS011;732;51.698;4.886;2022-09-23T02:35:28;15.37;;;8.83;;
1479;SDS011;732;51.698;4.886;2022-09-23T02:38:05;17.03;;;8.73;;
1479;SDS011;732;51.698;4.886;2022-09-23T02:40:45;15.90;;;9.40;;
1479;SDS011;732;51.698;4.886;2022-09-23T02:43:21;15.27;;;9.10;;
1479;SDS011;732;51.698;4.886;2022-09-23T02:46:01;14.50;;;9.80;;
1479;SDS011;732;51.698;4.886;2022-09-23T02:48:32;12.43;;;9.60;;
1479;SDS011;732;51.698;4.886;2022-09-23T02:51:07;14.60;;;9.73;;
1479;SDS011;732;51.698;4.886;2022-09-23T02:53:37;18.83;;;10.33;;
1479;SDS011;732;51.698;4.886;2022-09-23T02:56:11;15.57;;;10.07;;
1479;SDS011;732;51.698;4.886;2022-09-23T02:58:44;17.00;;;9.90;;
1479;SDS011;732;51.698;4.886;2022-09-23T03:01:15;19.40;;;10.63;;
1479;SDS011;732;51.698;4.886;2022-09-23T03:04:01;17.70;;;10.30;;
1479;SDS011;732;51.698;4.886;2022-09-23T03:06:43;13.30;;;10.20;;
1479;SDS011;732;51.698;4.886;2022-09-23T03:09:28;15.80;;;10.10;;
1479;SDS011;732;51.698;4.886;2022-09-23T03:12:05;18.03;;;9.70;;
1479;SDS011;732;51.698;4.886;2022-09-23T03:14:43;15.90;;;10.17;;
1479;SDS011;732;51.698;4.886;2022-09-23T03:17:21;19.67;;;10.80;;
1479;SDS011;732;51.698;4.886;2022-09-23T03:19:57;18.30;;;10.23;;
1479;SDS011;732;51.698;4.886;2022-09-23T03:22:32;16.67;;;10.87;;
1479;SDS011;732;51.698;4.886;2022-09-23T03:25:07;19.17;;;10.70;;
1479;SDS011;732;51.698;4.886;2022-09-23T03:27:40;17.43;;;10.73;;
1479;SDS011;732;51.698;4.886;2022-09-23T03:30:11;17.07;;;10.37;;
1479;SDS011;732;51.698;4.886;2022-09-23T03:32:41;15.60;;;11.27;;
1479;SDS011;732;51.698;4.886;2022-09-23T03:35:13;16.10;;;10.80;;
1479;SDS011;732;51.698;4.886;2022-09-23T03:37:46;23.90;;;12.50;;
1479;SDS011;732;51.698;4.886;2022-09-23T03:40:20;16.43;;;11.20;;
1479;SDS011;732;51.698;4.886;2022-09-23T03:42:53;16.43;;;10.83;;
1479;SDS011;732;51.698;4.886;2022-09-23T03:45:25;19.40;;;12.03;;
1479;SDS011;732;51.698;4.886;2022-09-23T03:47:56;19.60;;;11.30;;
1479;SDS011;732;51.698;4.886;2022-09-23T03:50:25;16.40;;;10.77;;
1479;SDS011;732;51.698;4.886;2022-09-23T03:52:56;15.50;;;10.63;;
1479;SDS011;732;51.698;4.886;2022-09-23T03:55:24;17.33;;;10.37;;
1479;SDS011;732;51.698;4.886;2022-09-23T03:57:53;16.90;;;10.10;;
1479;SDS011;732;51.698;4.886;2022-09-23T04:00:22;18.03;;;11.00;;
1479;SDS011;732;51.698;4.886;2022-09-23T04:02:50;14.83;;;10.00;;
1479;SDS011;732;51.698;4.886;2022-09-23T04:05:19;22.60;;;11.47;;
1479;SDS011;732;51.698;4.886;2022-09-23T04:07:47;16.40;;;10.07;;
1479;SDS011;732;51.698;4.886;2022-09-23T04:10:18;16.90;;;9.90;;
1479;SDS011;732;51.698;4.886;2022-09-23T04:12:46;13.60;;;10.00;;
1479;SDS011;732;51.698;4.886;2022-09-23T04:15:18;16.40;;;11.20;;
1479;SDS011;732;51.698;4.886;2022-09-23T04:17:47;16.77;;;10.83;;
1479;SDS011;732;51.698;4.886;2022-09-23T04:20:16;17.20;;;10.10;;
1479;SDS011;732;51.698;4.886;2022-09-23T04:22:44;16.90;;;10.63;;
1479;SDS011;732;51.698;4.886;2022-09-23T04:25:13;15.90;;;9.70;;
1479;SDS011;732;51.698;4.886;2022-09-23T04:27:43;15.70;;;10.60;;
1479;SDS011;732;51.698;4.886;2022-09-23T04:30:11;16.50;;;10.40;;
1479;SDS011;732;51.698;4.886;2022-09-23T04:32:40;16.70;;;10.20;;
1479;SDS011;732;51.698;4.886;2022-09-23T04:35:09;15.00;;;10.00;;
1479;SDS011;732;51.698;4.886;2022-09-23T04:37:37;15.33;;;9.50;;
1479;SDS011;732;51.698;4.886;2022-09-23T04:40:06;14.67;;;8.93;;
1479;SDS011;732;51.698;4.886;2022-09-23T04:42:36;14.60;;;9.40;;
1479;SDS011;732;51.698;4.886;2022-09-23T04:45:07;12.40;;;9.47;;
1479;SDS011;732;51.698;4.886;2022-09-23T04:47:36;14.07;;;9.40;;
1479;SDS011;732;51.698;4.886;2022-09-23T04:50:05;16.20;;;9.47;;
1479;SDS011;732;51.698;4.886;2022-09-23T04:52:34;15.97;;;10.20;;
1479;SDS011;732;51.698;4.886;2022-09-23T04:55:03;16.63;;;11.00;;
1479;SDS011;732;51.698;4.886;2022-09-23T04:57:36;18.20;;;11.37;;
1479;SDS011;732;51.698;4.886;2022-09-23T05:00:07;14.87;;;10.00;;
1479;SDS011;732;51.698;4.886;2022-09-23T05:02:40;15.73;;;10.53;;
1479;SDS011;732;51.698;4.886;2022-09-23T05:05:10;15.67;;;9.13;;
1479;SDS011;732;51.698;4.886;2022-09-23T05:07:39;18.40;;;10.67;;
1479;SDS011;732;51.698;4.886;2022-09-23T05:10:09;13.27;;;9.27;;
1479;SDS011;732;51.698;4.886;2022-09-23T05:12:38;15.97;;;10.20;;
1479;SDS011;732;51.698;4.886;2022-09-23T05:15:08;15.10;;;9.23;;
1479;SDS011;732;51.698;4.886;2022-09-23T05:17:41;15.93;;;9.97;;
1479;SDS011;732;51.698;4.886;2022-09-23T05:20:10;14.60;;;10.03;;
1479;SDS011;732;51.698;4.886;2022-09-23T05:22:38;15.83;;;10.67;;
1479;SDS011;732;51.698;4.886;2022-09-23T05:25:07;15.43;;;10.30;;
1479;SDS011;732;51.698;4.886;2022-09-23T05:27:36;16.70;;;10.40;;
1479;SDS011;732;51.698;4.886;2022-09-23T05:30:05;15.83;;;9.50;;
1479;SDS011;732;51.698;4.886;2022-09-23T05:32:37;13.37;;;9.73;;
1479;SDS011;732;51.698;4.886;2022-09-23T05:35:05;11.97;;;8.70;;
1479;SDS011;732;51.698;4.886;2022-09-23T05:37:35;16.10;;;9.80;;
1479;SDS011;732;51.698;4.886;2022-09-23T05:40:04;13.47;;;9.13;;
1479;SDS011;732;51.698;4.886;2022-09-23T05:42:33;13.40;;;9.30;;
1479;SDS011;732;51.698;4.886;2022-09-23T05:45:02;13.00;;;9.07;;
1479;SDS011;732;51.698;4.886;2022-09-23T05:47:34;18.83;;;10.30;;
1479;SDS011;732;51.698;4.886;2022-09-23T05:50:03;14.07;;;9.27;;
1479;SDS011;732;51.698;4.886;2022-09-23T05:52:33;16.67;;;9.33;;
1479;SDS011;732;51.698;4.886;2022-09-23T05:55:01;17.73;;;11.10;;
1479;SDS011;732;51.698;4.886;2022-09-23T05:57:34;23.03;;;10.20;;
1479;SDS011;732;51.698;4.886;2022-09-23T06:00:02;15.60;;;9.20;;
1479;SDS011;732;51.698;4.886;2022-09-23T06:02:38;15.13;;;8.73;;
1479;SDS011;732;51.698;4.886;2022-09-23T06:05:07;14.40;;;9.70;;
1479;SDS011;732;51.698;4.886;2022-09-23T06:07:37;14.57;;;9.53;;
1479;SDS011;732;51.698;4.886;2022-09-23T06:10:05;16.10;;;9.50;;
1479;SDS011;732;51.698;4.886;2022-09-23T06:12:34;16.37;;;9.87;;
1479;SDS011;732;51.698;4.886;2022-09-23T06:15:03;12.30;;;9.10;;
1479;SDS011;732;51.698;4.886;2022-09-23T06:17:33;14.50;;;8.90;;
1479;SDS011;732;51.698;4.886;2022-09-23T06:20:03;12.67;;;8.73;;
1479;SDS011;732;51.698;4.886;2022-09-23T06:22:34;14.63;;;8.70;;
1479;SDS011;732;51.698;4.886;2022-09-23T06:25:05;16.07;;;9.00;;
1479;SDS011;732;51.698;4.886;2022-09-23T06:27:37;15.87;;;8.90;;
1479;SDS011;732;51.698;4.886;2022-09-23T06:30:06;13.40;;;9.50;;
1479;SDS011;732;51.698;4.886;2022-09-23T06:32:39;13.93;;;9.97;;
1479;SDS011;732;51.698;4.886;2022-09-23T06:35:09;13.23;;;8.87;;
1479;SDS011;732;51.698;4.886;2022-09-23T06:37:49;16.43;;;10.40;;
1479;SDS011;732;51.698;4.886;2022-09-23T06:40:18;22.63;;;12.93;;
1479;SDS011;732;51.698;4.886;2022-09-23T06:42:55;19.97;;;13.13;;
1479;SDS011;732;51.698;4.886;2022-09-23T06:45:24;24.93;;;14.70;;
1479;SDS011;732;51.698;4.886;2022-09-23T06:47:54;22.57;;;14.27;;
1479;SDS011;732;51.698;4.886;2022-09-23T06:50:26;25.20;;;15.70;;
1479;SDS011;732;51.698;4.886;2022-09-23T06:52:55;19.33;;;12.50;;
1479;SDS011;732;51.698;4.886;2022-09-23T06:55:24;24.80;;;15.87;;
1479;SDS011;732;51.698;4.886;2022-09-23T06:57:53;30.10;;;18.17;;
1479;SDS011;732;51.698;4.886;2022-09-23T07:00:24;26.37;;;16.30;;
1479;SDS011;732;51.698;4.886;2022-09-23T07:02:54;22.90;;;15.30;;
1479;SDS011;732;51.698;4.886;2022-09-23T07:05:23;22.20;;;15.87;;
1479;SDS011;732;51.698;4.886;2022-09-23T07:07:53;23.03;;;15.90;;
1479;SDS011;732;51.698;4.886;2022-09-23T07:10:21;23.13;;;16.97;;
1479;SDS011;732;51.698;4.886;2022-09-23T07:12:50;28.03;;;19.50;;
1479;SDS011;732;51.698;4.886;2022-09-23T07:15:18;33.43;;;21.63;;
1479;SDS011;732;51.698;4.886;2022-09-23T07:17:47;31.10;;;19.60;;
1479;SDS011;732;51.698;4.886;2022-09-23T07:20:15;26.23;;;16.33;;
1479;SDS011;732;51.698;4.886;2022-09-23T07:22:48;19.57;;;12.40;;
1479;SDS011;732;51.698;4.886;2022-09-23T07:25:18;19.07;;;12.10;;
1479;SDS011;732;51.698;4.886;2022-09-23T07:27:46;15.70;;;10.40;;
1479;SDS011;732;51.698;4.886;2022-09-23T07:30:15;15.27;;;10.13;;
1479;SDS011;732;51.698;4.886;2022-09-23T07:32:50;15.27;;;9.40;;
1479;SDS011;732;51.698;4.886;2022-09-23T07:35:19;14.60;;;10.40;;
1479;SDS011;732;51.698;4.886;2022-09-23T07:37:50;17.40;;;10.70;;
1479;SDS011;732;51.698;4.886;2022-09-23T07:40:18;15.83;;;9.90;;
1479;SDS011;732;51.698;4.886;2022-09-23T07:42:46;15.10;;;10.47;;
1479;SDS011;732;51.698;4.886;2022-09-23T07:45:15;15.80;;;11.50;;
1479;SDS011;732;51.698;4.886;2022-09-23T07:47:46;18.63;;;12.13;;
1479;SDS011;732;51.698;4.886;2022-09-23T07:50:15;14.40;;;10.63;;
1479;SDS011;732;51.698;4.886;2022-09-23T07:52:44;15.83;;;10.67;;
1479;SDS011;732;51.698;4.886;2022-09-23T07:55:14;19.47;;;10.27;;
1479;SDS011;732;51.698;4.886;2022-09-23T07:57:46;18.03;;;11.57;;
1479;SDS011;732;51.698;4.886;2022-09-23T08:00:15;14.30;;;9.73;;
1479;SDS011;732;51.698;4.886;2022-09-23T08:02:44;16.03;;;10.37;;
1479;SDS011;732;51.698;4.886;2022-09-23T08:05:18;16.77;;;11.20;;
1479;SDS011;732;51.698;4.886;2022-09-23T08:07:49;11.70;;;8.73;;
1479;SDS011;732;51.698;4.886;2022-09-23T08:10:19;11.17;;;8.17;;
1479;SDS011;732;51.698;4.886;2022-09-23T08:12:48;8.93;;;7.27;;
1479;SDS011;732;51.698;4.886;2022-09-23T08:15:16;10.30;;;7.40;;
1479;SDS011;732;51.698;4.886;2022-09-23T08:17:45;12.90;;;8.37;;
1479;SDS011;732;51.698;4.886;2022-09-23T08:20:14;9.00;;;7.07;;
1479;SDS011;732;51.698;4.886;2022-09-23T08:22:56;9.63;;;7.13;;
1479;SDS011;732;51.698;4.886;2022-09-23T08:25:26;10.50;;;7.13;;
1479;SDS011;732;51.698;4.886;2022-09-23T08:28:00;10.50;;;6.80;;
1479;SDS011;732;51.698;4.886;2022-09-23T08:30:28;10.70;;;7.57;;
1479;SDS011;732;51.698;4.886;2022-09-23T08:32:57;10.80;;;6.80;;
1479;SDS011;732;51.698;4.886;2022-09-23T08:35:26;9.27;;;7.20;;
1479;SDS011;732;51.698;4.886;2022-09-23T08:37:54;7.90;;;5.60;;
1479;SDS011;732;51.698;4.886;2022-09-23T08:40:23;13.23;;;8.00;;
1479;SDS011;732;51.698;4.886;2022-09-23T08:42:53;8.27;;;5.53;;
1479;SDS011;732;51.698;4.886;2022-09-23T08:45:22;10.50;;;6.20;;
1479;SDS011;732;51.698;4.886;2022-09-23T08:47:55;11.30;;;6.77;;
1479;SDS011;732;51.698;4.886;2022-09-23T08:50:39;8.63;;;5.40;;
1479;SDS011;732;51.698;4.886;2022-09-23T08:53:12;10.90;;;6.30;;
1479;SDS011;732;51.698;4.886;2022-09-23T08:55:50;7.13;;;5.80;;
1479;SDS011;732;51.698;4.886;2022-09-23T08:58:29;9.13;;;5.40;;
1479;SDS011;732;51.698;4.886;2022-09-23T09:01:09;6.70;;;5.30;;
1479;SDS011;732;51.698;4.886;2022-09-23T09:03:46;9.10;;;5.37;;
1479;SDS011;732;51.698;4.886;2022-09-23T09:06:18;5.90;;;4.93;;
1479;SDS011;732;51.698;4.886;2022-09-23T09:09:20;6.73;;;5.30;;
1479;SDS011;732;51.698;4.886;2022-09-23T09:11:55;9.73;;;5.30;;
1479;SDS011;732;51.698;4.886;2022-09-23T09:14:35;8.57;;;5.43;;
1479;SDS011;732;51.698;4.886;2022-09-23T09:17:11;6.07;;;4.70;;
1479;SDS011;732;51.698;4.886;2022-09-23T09:19:52;6.57;;;5.07;;
1479;SDS011;732;51.698;4.886;2022-09-23T09:22:30;6.80;;;4.97;;
1479;SDS011;732;51.698;4.886;2022-09-23T09:25:17;7.83;;;4.70;;
1479;SDS011;732;51.698;4.886;2022-09-23T09:28:07;10.13;;;5.43;;
1479;SDS011;732;51.698;4.886;2022-09-23T09:30:46;7.80;;;4.90;;
1479;SDS011;732;51.698;4.886;2022-09-23T09:33:22;8.80;;;5.23;;
1479;SDS011;732;51.698;4.886;2022-09-23T09:36:04;11.07;;;4.43;;
1479;SDS011;732;51.698;4.886;2022-09-23T09:38:41;6.60;;;4.93;;
1479;SDS011;732;51.698;4.886;2022-09-23T09:41:11;5.33;;;4.27;;
1479;SDS011;732;51.698;4.886;2022-09-23T09:43:44;5.77;;;4.33;;
1479;SDS011;732;51.698;4.886;2022-09-23T09:49:24;5.73;;;4.30;;
1479;SDS011;732;51.698;4.886;2022-09-23T09:52:12;4.50;;;3.70;;
1479;SDS011;732;51.698;4.886;2022-09-23T09:54:48;4.67;;;4.17;;
1479;SDS011;732;51.698;4.886;2022-09-23T09:57:18;7.03;;;4.17;;
1479;SDS011;732;51.698;4.886;2022-09-23T10:00:15;5.57;;;3.90;;
1479;SDS011;732;51.698;4.886;2022-09-23T10:03:03;6.40;;;4.20;;
1479;SDS011;732;51.698;4.886;2022-09-23T10:05:56;6.07;;;3.90;;
1479;SDS011;732;51.698;4.886;2022-09-23T10:08:26;4.30;;;3.53;;
1479;SDS011;732;51.698;4.886;2022-09-23T10:11:00;4.90;;;3.33;;
1479;SDS011;732;51.698;4.886;2022-09-23T10:13:32;4.67;;;3.37;;
1479;SDS011;732;51.698;4.886;2022-09-23T10:16:01;4.13;;;3.60;;
1479;SDS011;732;51.698;4.886;2022-09-23T10:18:34;3.90;;;3.13;;
1479;SDS011;732;51.698;4.886;2022-09-23T10:21:06;5.27;;;3.47;;
1479;SDS011;732;51.698;4.886;2022-09-23T10:23:39;3.60;;;2.83;;
1479;SDS011;732;51.698;4.886;2022-09-23T10:26:11;5.53;;;3.80;;
1479;SDS011;732;51.698;4.886;2022-09-23T10:28:45;4.60;;;3.40;;
1479;SDS011;732;51.698;4.886;2022-09-23T10:31:20;3.87;;;3.43;;
1479;SDS011;732;51.698;4.886;2022-09-23T10:33:53;4.37;;;3.30;;
1479;SDS011;732;51.698;4.886;2022-09-23T10:36:25;4.00;;;3.23;;
1479;SDS011;732;51.698;4.886;2022-09-23T10:38:56;4.40;;;3.13;;
1479;SDS011;732;51.698;4.886;2022-09-23T10:41:42;6.17;;;3.80;;
1479;SDS011;732;51.698;4.886;2022-09-23T10:44:43;4.20;;;3.50;;
1479;SDS011;732;51.698;4.886;2022-09-23T10:47:45;5.73;;;3.47;;
1479;SDS011;732;51.698;4.886;2022-09-23T10:50:29;5.10;;;3.10;;
1479;SDS011;732;51.698;4.886;2022-09-23T10:53:09;3.83;;;3.50;;
1479;SDS011;732;51.698;4.886;2022-09-23T10:55:51;4.63;;;3.50;;
1479;SDS011;732;51.698;4.886;2022-09-23T11:01:47;5.77;;;3.30;;
1479;SDS011;732;51.698;4.886;2022-09-23T11:04:40;7.87;;;4.20;;
1479;SDS011;732;51.698;4.886;2022-09-23T11:07:38;5.27;;;4.00;;
1479;SDS011;732;51.698;4.886;2022-09-23T11:10:18;5.90;;;4.30;;
1479;SDS011;732;51.698;4.886;2022-09-23T11:13:18;7.17;;;3.73;;
1479;SDS011;732;51.698;4.886;2022-09-23T11:16:04;5.37;;;3.73;;
1479;SDS011;732;51.698;4.886;2022-09-23T11:18:54;5.47;;;3.80;;
1479;SDS011;732;51.698;4.886;2022-09-23T11:21:48;4.37;;;2.93;;
1479;SDS011;732;51.698;4.886;2022-09-23T11:24:38;8.93;;;3.57;;
1479;SDS011;732;51.698;4.886;2022-09-23T11:27:34;6.67;;;3.97;;
1479;SDS011;732;51.698;4.886;2022-09-23T11:30:17;7.60;;;3.40;;
1479;SDS011;732;51.698;4.886;2022-09-23T11:33:06;5.57;;;4.17;;
1479;SDS011;732;51.698;4.886;2022-09-23T11:35:47;5.60;;;3.63;;
1479;SDS011;732;51.698;4.886;2022-09-23T11:38:21;6.40;;;3.97;;
1479;SDS011;732;51.698;4.886;2022-09-23T11:40:57;6.33;;;3.90;;
1479;SDS011;732;51.698;4.886;2022-09-23T11:43:33;5.07;;;4.20;;
1479;SDS011;732;51.698;4.886;2022-09-23T11:46:06;6.20;;;3.83;;
1479;SDS011;732;51.698;4.886;2022-09-23T11:48:56;6.53;;;3.93;;
1479;SDS011;732;51.698;4.886;2022-09-23T11:51:32;4.10;;;3.70;;
1479;SDS011;732;51.698;4.886;2022-09-23T11:54:11;6.40;;;3.40;;
1479;SDS011;732;51.698;4.886;2022-09-23T11:56:49;5.37;;;3.90;;
1479;SDS011;732;51.698;4.886;2022-09-23T11:59:24;6.40;;;4.57;;
1479;SDS011;732;51.698;4.886;2022-09-23T12:02:10;5.80;;;4.80;;
1479;SDS011;732;51.698;4.886;2022-09-23T12:04:58;6.73;;;5.00;;
1479;SDS011;732;51.698;4.886;2022-09-23T12:07:39;6.10;;;4.43;;
1479;SDS011;732;51.698;4.886;2022-09-23T12:10:17;6.20;;;4.70;;
1479;SDS011;732;51.698;4.886;2022-09-23T12:12:50;13.50;;;4.93;;
1479;SDS011;732;51.698;4.886;2022-09-23T12:15:31;5.27;;;4.37;;
1479;SDS011;732;51.698;4.886;2022-09-23T12:18:21;7.20;;;5.03;;
1479;SDS011;732;51.698;4.886;2022-09-23T12:21:25;6.83;;;4.80;;
1479;SDS011;732;51.698;4.886;2022-09-23T12:24:21;8.80;;;6.17;;
1479;SDS011;732;51.698;4.886;2022-09-23T12:27:15;7.67;;;5.40;;
1479;SDS011;732;51.698;4.886;2022-09-23T12:29:56;9.23;;;6.37;;
1479;SDS011;732;51.698;4.886;2022-09-23T12:32:28;8.57;;;6.37;;
1479;SDS011;732;51.698;4.886;2022-09-23T12:34:57;14.33;;;6.30;;
1479;SDS011;732;51.698;4.886;2022-09-23T12:37:31;9.23;;;6.67;;
1479;SDS011;732;51.698;4.886;2022-09-23T12:40:05;11.53;;;6.80;;
1479;SDS011;732;51.698;4.886;2022-09-23T12:42:39;9.93;;;6.50;;
1479;SDS011;732;51.698;4.886;2022-09-23T12:45:32;9.10;;;6.93;;
1479;SDS011;732;51.698;4.886;2022-09-23T12:48:25;8.90;;;6.40;;
1479;SDS011;732;51.698;4.886;2022-09-23T12:51:26;11.20;;;6.83;;
1479;SDS011;732;51.698;4.886;2022-09-23T12:53:57;11.43;;;6.27;;
1479;SDS011;732;51.698;4.886;2022-09-23T12:56:56;11.37;;;7.10;;
1479;SDS011;732;51.698;4.886;2022-09-23T12:59:32;8.20;;;6.40;;
1479;SDS011;732;51.698;4.886;2022-09-23T13:02:30;12.87;;;7.97;;
1479;SDS011;732;51.698;4.886;2022-09-23T13:05:07;9.50;;;6.77;;
1479;SDS011;732;51.698;4.886;2022-09-23T13:08:04;13.83;;;7.37;;
1479;SDS011;732;51.698;4.886;2022-09-23T13:10:41;9.80;;;7.27;;
1479;SDS011;732;51.698;4.886;2022-09-23T13:13:16;9.10;;;7.10;;
1479;SDS011;732;51.698;4.886;2022-09-23T13:15:49;9.40;;;6.87;;
1479;SDS011;732;51.698;4.886;2022-09-23T13:24:34;8.93;;;6.70;;
1479;SDS011;732;51.698;4.886;2022-09-23T13:27:16;8.23;;;6.60;;
1479;SDS011;732;51.698;4.886;2022-09-23T13:29:49;9.50;;;7.33;;
1479;SDS011;732;51.698;4.886;2022-09-23T13:32:27;9.07;;;6.97;;
1479;SDS011;732;51.698;4.886;2022-09-23T13:35:02;9.47;;;6.70;;
1479;SDS011;732;51.698;4.886;2022-09-23T13:37:40;7.57;;;5.90;;
1479;SDS011;732;51.698;4.886;2022-09-23T13:40:16;11.03;;;6.70;;
1479;SDS011;732;51.698;4.886;2022-09-23T13:42:50;10.07;;;6.07;;
1479;SDS011;732;51.698;4.886;2022-09-23T13:45:24;10.60;;;5.97;;
1479;SDS011;732;51.698;4.886;2022-09-23T13:47:57;6.73;;;5.77;;
1479;SDS011;732;51.698;4.886;2022-09-23T13:50:32;9.87;;;6.40;;
1479;SDS011;732;51.698;4.886;2022-09-23T13:53:08;11.17;;;5.80;;
1479;SDS011;732;51.698;4.886;2022-09-23T13:55:39;10.17;;;6.17;;
1479;SDS011;732;51.698;4.886;2022-09-23T13:58:13;9.87;;;6.20;;
1479;SDS011;732;51.698;4.886;2022-09-23T14:00:46;8.07;;;6.03;;
1479;SDS011;732;51.698;4.886;2022-09-23T14:03:16;8.87;;;6.47;;
1479;SDS011;732;51.698;4.886;2022-09-23T14:05:53;8.73;;;6.17;;
1479;SDS011;732;51.698;4.886;2022-09-23T14:08:22;9.90;;;6.70;;
1479;SDS011;732;51.698;4.886;2022-09-23T14:10:51;10.40;;;6.90;;
1479;SDS011;732;51.698;4.886;2022-09-23T14:13:21;6.37;;;5.33;;
1479;SDS011;732;51.698;4.886;2022-09-23T14:15:53;8.00;;;6.20;;
1479;SDS011;732;51.698;4.886;2022-09-23T14:18:30;8.80;;;6.17;;
1479;SDS011;732;51.698;4.886;2022-09-23T14:21:09;13.63;;;6.90;;
1479;SDS011;732;51.698;4.886;2022-09-23T14:23:54;10.10;;;6.57;;
1479;SDS011;732;51.698;4.886;2022-09-23T14:26:22;9.23;;;6.50;;
1479;SDS011;732;51.698;4.886;2022-09-23T14:28:52;10.30;;;6.73;;
1479;SDS011;732;51.698;4.886;2022-09-23T14:31:21;7.23;;;5.93;;
1479;SDS011;732;51.698;4.886;2022-09-23T14:33:50;8.27;;;6.10;;
1479;SDS011;732;51.698;4.886;2022-09-23T14:36:20;6.63;;;5.73;;
1479;SDS011;732;51.698;4.886;2022-09-23T14:39:06;8.60;;;6.47;;
1479;SDS011;732;51.698;4.886;2022-09-23T14:41:38;9.10;;;7.03;;
1479;SDS011;732;51.698;4.886;2022-09-23T14:44:13;8.40;;;6.33;;
1479;SDS011;732;51.698;4.886;2022-09-23T14:46:51;12.43;;;5.90;;
1479;SDS011;732;51.698;4.886;2022-09-23T14:49:23;9.90;;;6.90;;
1479;SDS011;732;51.698;4.886;2022-09-23T14:51:54;10.03;;;6.60;;
1479;SDS011;732;51.698;4.886;2022-09-23T14:54:28;9.60;;;6.20;;
1479;SDS011;732;51.698;4.886;2022-09-23T14:57:02;7.47;;;5.20;;
1479;SDS011;732;51.698;4.886;2022-09-23T14:59:52;7.97;;;5.83;;
1479;SDS011;732;51.698;4.886;2022-09-23T15:02:26;9.73;;;6.30;;
1479;SDS011;732;51.698;4.886;2022-09-23T15:05:10;7.90;;;5.50;;
1479;SDS011;732;51.698;4.886;2022-09-23T15:07:48;9.87;;;7.73;;
1479;SDS011;732;51.698;4.886;2022-09-23T15:10:19;10.67;;;6.80;;
1479;SDS011;732;51.698;4.886;2022-09-23T15:12:53;10.30;;;7.53;;
1479;SDS011;732;51.698;4.886;2022-09-23T15:15:31;10.77;;;7.60;;
1479;SDS011;732;51.698;4.886;2022-09-23T15:18:02;10.50;;;6.90;;
1479;SDS011;732;51.698;4.886;2022-09-23T15:20:33;10.50;;;7.70;;
1479;SDS011;732;51.698;4.886;2022-09-23T15:23:04;14.10;;;8.20;;
1479;SDS011;732;51.698;4.886;2022-09-23T15:25:33;10.70;;;6.90;;
1479;SDS011;732;51.698;4.886;2022-09-23T15:28:16;11.63;;;7.90;;
1479;SDS011;732;51.698;4.886;2022-09-23T15:30:48;10.90;;;7.50;;
1479;SDS011;732;51.698;4.886;2022-09-23T15:33:16;10.13;;;8.20;;
1479;SDS011;732;51.698;4.886;2022-09-23T15:35:50;11.67;;;7.97;;
1479;SDS011;732;51.698;4.886;2022-09-23T15:38:20;12.33;;;7.60;;
1479;SDS011;732;51.698;4.886;2022-09-23T15:40:49;11.40;;;8.00;;
1479;SDS011;732;51.698;4.886;2022-09-23T15:43:18;11.03;;;8.23;;
1479;SDS011;732;51.698;4.886;2022-09-23T15:45:50;11.23;;;8.27;;
1479;SDS011;732;51.698;4.886;2022-09-23T15:48:21;12.20;;;8.50;;
1479;SDS011;732;51.698;4.886;2022-09-23T15:50:53;11.63;;;7.73;;
1479;SDS011;732;51.698;4.886;2022-09-23T15:53:26;12.57;;;8.47;;
1479;SDS011;732;51.698;4.886;2022-09-23T15:55:55;9.10;;;6.70;;
1479;SDS011;732;51.698;4.886;2022-09-23T15:58:24;10.50;;;7.43;;
1479;SDS011;732;51.698;4.886;2022-09-23T16:00:54;10.33;;;7.70;;
1479;SDS011;732;51.698;4.886;2022-09-23T16:03:23;12.77;;;7.90;;
1479;SDS011;732;51.698;4.886;2022-09-23T16:05:55;12.13;;;8.57;;
1479;SDS011;732;51.698;4.886;2022-09-23T16:08:27;12.27;;;8.10;;
1479;SDS011;732;51.698;4.886;2022-09-23T16:10:58;12.23;;;7.90;;
1479;SDS011;732;51.698;4.886;2022-09-23T16:13:27;11.77;;;7.77;;
1479;SDS011;732;51.698;4.886;2022-09-23T16:15:55;13.83;;;8.10;;
1479;SDS011;732;51.698;4.886;2022-09-23T16:18:24;15.33;;;8.47;;
1479;SDS011;732;51.698;4.886;2022-09-23T16:20:53;11.47;;;8.40;;